Valley Falls, KS

12:02 PM CDT on October 02, 2014 (GMT -0500)
Lawrence Municipal | Change Station
CLOSE
Current Station
Airport
Location: Lawrence,
Elevation: 830 ft
Nearby Weather Stations

Elev 830 ft 39.01 °N, 95.21 °W | Updated 7 minutes ago

Overcast
Overcast
67 °F
Feels Like 67 °F
N
12
Wind Variable Wind from NW

Today
High -- | Low -- °F
--% Chance of Precip.
Yesterday
High -- | Low -- °F
Precip. -- in
7:18 AM 7:02 PM
First Quarter, 60% visible
Pressure 29.74 in
Visibility 4.0 miles
Clouds Mostly Cloudy 800 ft
Overcast 1300 ft
Dew Point 65 °F
Humidity 93%
Rainfall 2.30 in
Snow Depth Not available.
UV 2 out of 12
Pollen .50 out of 12
Air Quality Not available.
Flu Activity Not available.
SPECI KLWC 021655Z AUTO 31010KT 4SM -RA BR BKN008 OVC013 19/18 A2974 RMK AO2 LTG DSNT N-SE P0000 T01940183

More Conditions Fewer Conditions

Pressure 29.74 in
Visibility 4.0 miles
Clouds Mostly Cloudy 800 ft
Overcast 1300 ft
Dew Point 65 °F
Humidity 93%
Rainfall 2.30 in
Snow Depth Not available.
UV 2 out of 12
Pollen .50 out of 12
Air Quality Not available.
Flu Activity Not available.
SPECI KLWC 021655Z AUTO 31010KT 4SM -RA BR BKN008 OVC013 19/18 A2974 RMK AO2 LTG DSNT N-SE P0000 T01940183

More Conditions Fewer Conditions

10-Day Weather Forecast

Almanac

Astronomy

Oct. 02, 2014 Rise Set
Actual Time 7:18 AM CDT 7:02 PM CDT
Civil Twilight 6:52 AM CDT 7:29 PM CDT
Nautical Twilight 6:21 AM CDT 8:00 PM CDT
Astronomical Twilight 5:49 AM CDT 8:31 PM CDT
Moon 3:08 PM CDT 12:38 AM CDT
Length of Visible Light 12h 37m
Length of Day
11h 43m
Tomorrow will be 2m 32s shorter.
First Quarter, 60% of the Moon is Illuminated
Today
First Quarter
Oct 8
Full
Oct 15
Last Quarter
Oct 23
New
Oct 30
First Quarter

Today's Extremes

State Highs State Lows

Community

WunderPhotos

Upload Photos

1,758,298 photos uploaded!

Nearby

Snow Depth

Station Depth Elevation
No new snow has been reported.

Earthquake Activity

City Distance Mag. Time & Date
Parsons, Kansas 135 miles 3.0 7:33 PM CDT
2014-09-30
Minimum magnitude displayed is 2.5.

Coastal Water Temperatures

Place Temperature
No Stations Reporting

Nearby Weather Stations